Terminal Aerodrome Forecast
Issued by NWS

Home | Current Version | Previous Version | Text Only | Print | Product List | Glossary On
Versions: 1 2 3 4 5 6 7 8 9 10 11 12 13 14 15 16 17 18 19 20 21 22 23 24 25 26 27 28 29
000
FTUS43 KDMX 242039 AAE
TAFMCW
TAF AMD
KMCW 242039Z 2421/2518 24009KT P6SM SCT020 BKN120
     FM250400 29009KT P6SM SCT200
     FM251100 32009KT P6SM SKC=

USA.gov is the U.S. government's official web portal to all federal, state and local government web resources and services.